Time;durP1;ratioP1;P1;durP2;ratioP2;P2;SDS_P1;SDS_P2;PMS_P1;PMS_P2;Temp;Humidity;BMP_temperature;BMP_pressure;BME280_temperature;BME280_humidity;BME280_pressure;Samples;Min_cycle;Max_cycle;Signal;HPM_P1;HPM_P2
2022/08/09 00:01:37;;;;;;;10.27;2.92;;;;;;;18.37;87.27;97374.22;5028031;28;20474;-71
2022/08/09 00:04:03;;;;;;;7.47;2.75;;;;;;;18.33;90.81;97365.84;5028545;28;20044;-71
2022/08/09 00:06:29;;;;;;;5.70;2.92;;;;;;;18.30;87.47;97368.28;5029279;28;20411;-71
2022/08/09 00:08:55;;;;;;;6.05;2.92;;;;;;;18.31;87.54;97376.13;5026360;28;20276;-71
2022/08/09 00:11:22;;;;;;;6.32;3.10;;;;;;;18.40;88.61;97370.97;5027970;28;20061;-71
2022/08/09 00:13:48;;;;;;;8.48;3.13;;;;;;;18.29;88.82;97372.09;5026189;28;20431;-71
2022/08/09 00:16:14;;;;;;;4.68;2.60;;;;;;;18.25;87.79;97366.41;5028706;28;20119;-71
2022/08/09 00:18:40;;;;;;;5.95;2.85;;;;;;;18.19;91.76;97361.28;5025471;28;20316;-71
2022/08/09 00:21:07;;;;;;;6.30;2.45;;;;;;;18.12;91.59;97366.16;5029087;28;20037;-71
2022/08/09 00:23:33;;;;;;;9.18;2.97;;;;;;;18.14;89.31;97370.22;5028252;28;20044;-71
2022/08/09 00:25:58;;;;;;;5.13;2.97;;;;;;;18.20;90.90;97362.88;5026768;28;20119;-71
2022/08/09 00:28:24;;;;;;;8.35;2.70;;;;;;;18.17;90.45;97358.03;5027852;28;20492;-71
2022/08/09 00:30:50;;;;;;;6.97;2.85;;;;;;;18.13;91.19;97362.34;5027659;28;20455;-71
2022/08/09 00:33:15;;;;;;;5.13;2.65;;;;;;;18.07;89.41;97362.41;5027524;28;20045;-71
2022/08/09 00:35:41;;;;;;;9.55;2.78;;;;;;;17.97;91.70;97365.09;5025470;28;20064;-71
2022/08/09 00:38:11;;;;;;;7.78;3.42;;;;;;;17.89;91.88;97375.69;5027598;28;20443;-71
2022/08/09 00:40:38;;;;;;;7.72;3.03;;;;;;;17.90;90.52;97375.44;5027076;28;20040;-71
2022/08/09 00:43:04;;;;;;;5.10;2.72;;;;;;;17.87;94.29;97372.44;5026640;28;20083;-71
2022/08/09 00:45:29;;;;;;;8.93;3.10;;;;;;;17.81;93.16;97366.22;5027142;28;20466;-71
2022/08/09 00:47:55;;;;;;;6.45;2.83;;;;;;;17.81;92.67;97382.44;5026530;28;21138;-71
2022/08/09 00:50:20;;;;;;;5.32;2.90;;;;;;;17.75;92.28;97378.16;5026299;28;20029;-71
2022/08/09 00:52:46;;;;;;;7.95;2.90;;;;;;;17.72;94.87;97374.06;5025542;28;20036;-71
2022/08/09 00:55:11;;;;;;;5.97;2.80;;;;;;;17.73;93.56;97375.69;5025932;28;20040;-71
2022/08/09 00:57:37;;;;;;;7.03;2.78;;;;;;;17.65;95.45;97367.28;5027613;28;20411;-71
2022/08/09 01:00:07;;;;;;;6.70;2.80;;;;;;;17.61;95.68;97367.03;5026839;28;20069;-71
2022/08/09 01:02:34;;;;;;;7.35;3.10;;;;;;;17.66;95.65;97361.59;5027233;28;20056;-71
2022/08/09 01:05:11;;;;;;;7.85;2.88;;;;;;;17.64;95.54;97363.75;5025616;28;20255;-71
2022/08/09 01:07:50;;;;;;;6.18;3.13;;;;;;;17.52;96.28;97364.06;5025643;28;20440;-71
2022/08/09 01:10:28;;;;;;;9.60;2.88;;;;;;;17.47;96.82;97372.16;5026875;28;20261;-71
2022/08/09 01:13:16;;;;;;;5.50;2.65;;;;;;;17.42;96.61;97368.63;5025325;28;20036;-71
2022/08/09 01:15:46;;;;;;;6.65;2.90;;;;;;;17.42;97.21;97369.44;5027880;28;20045;-71
2022/08/09 01:18:17;;;;;;;6.35;2.72;;;;;;;17.32;97.36;97371.34;5026510;28;20067;-71
2022/08/09 01:20:57;;;;;;;5.88;2.80;;;;;;;17.32;96.42;97363.22;5026006;28;20033;-71
2022/08/09 01:23:31;;;;;;;6.97;2.67;;;;;;;17.36;97.37;97370.53;5027635;28;20476;-71
2022/08/09 01:26:17;;;;;;;7.00;3.30;;;;;;;17.27;96.51;97362.16;5027407;28;20057;-71
2022/08/09 01:28:46;;;;;;;6.88;2.80;;;;;;;17.24;98.13;97367.28;5026136;28;20043;-71
2022/08/09 01:31:18;;;;;;;5.78;3.10;;;;;;;17.19;97.54;97369.97;5026715;28;20391;-71
2022/08/09 01:33:45;;;;;;;5.88;3.10;;;;;;;17.10;99.57;97364.28;5026723;28;20181;-71
2022/08/09 01:36:15;;;;;;;4.50;2.47;;;;;;;17.09;99.68;97369.97;5026486;28;20307;-71
2022/08/09 01:38:47;;;;;;;6.20;3.10;;;;;;;16.99;100.00;97371.56;5026222;28;20037;-71
2022/08/09 01:41:28;;;;;;;7.38;2.70;;;;;;;17.01;100.00;97363.19;5028214;28;20153;-71
2022/08/09 01:43:57;;;;;;;5.72;3.00;;;;;;;16.98;98.07;97364.53;5024358;28;20041;-72
2022/08/09 01:46:33;;;;;;;6.38;3.00;;;;;;;16.98;99.93;97367.25;5027542;28;20499;-71
2022/08/09 01:49:12;;;;;;;5.88;2.72;;;;;;;16.93;100.00;97372.63;5024546;28;20265;-71
2022/08/09 01:51:58;;;;;;;8.63;3.03;;;;;;;16.97;100.00;97371.03;5026040;28;20573;-72
2022/08/09 01:54:31;;;;;;;6.88;2.80;;;;;;;16.97;100.00;97362.91;5025953;28;20048;-71
2022/08/09 01:57:00;;;;;;;9.30;2.78;;;;;;;16.97;99.35;97359.41;5025395;28;20511;-71
2022/08/09 01:59:26;;;;;;;6.50;2.80;;;;;;;16.99;97.70;97359.94;5025612;28;20108;-71
2022/08/09 02:01:54;;;;;;;5.05;2.65;;;;;;;17.02;98.13;97355.88;5026046;28;20589;-71
2022/08/09 02:04:21;;;;;;;6.97;3.00;;;;;;;16.98;98.05;97356.44;5027179;28;20078;-72
2022/08/09 02:07:09;;;;;;;6.45;2.80;;;;;;;16.94;98.79;97352.63;5026485;28;20185;-72
2022/08/09 02:09:53;;;;;;;6.20;2.70;;;;;;;16.92;100.00;97359.38;5025708;28;20041;-72
2022/08/09 02:12:21;;;;;;;8.77;2.80;;;;;;;16.87;100.00;97356.66;5024070;28;20044;-71
2022/08/09 02:14:50;;;;;;;6.43;2.83;;;;;;;16.86;100.00;97357.75;5025487;28;20036;-72
2022/08/09 02:17:20;;;;;;;7.63;2.80;;;;;;;16.80;100.00;97353.41;5025937;28;20037;-71
2022/08/09 02:19:46;;;;;;;4.88;2.75;;;;;;;16.80;100.00;97356.91;5026832;28;20707;-72
2022/08/09 02:22:35;;;;;;;6.57;2.90;;;;;;;16.73;100.00;97367.19;5026531;28;20036;-71
2022/08/09 02:25:02;;;;;;;6.15;2.70;;;;;;;16.66;100.00;97363.88;5016964;28;20060;-71
2022/08/09 02:27:31;;;;;;;7.88;3.58;;;;;;;16.68;100.00;97359.84;5024826;28;20398;-71
2022/08/09 02:29:57;;;;;;;5.85;2.80;;;;;;;16.67;100.00;97360.91;5026507;28;20059;-71
2022/08/09 02:32:27;;;;;;;10.60;2.95;;;;;;;16.61;100.00;97355.75;5025465;28;20993;-71
2022/08/09 02:35:06;;;;;;;5.07;2.60;;;;;;;16.67;100.00;97363.63;5025258;28;20411;-72
2022/08/09 02:37:35;;;;;;;8.30;2.90;;;;;;;16.56;100.00;97353.84;5025691;28;20263;-72
2022/08/09 02:40:06;;;;;;;7.78;3.30;;;;;;;16.51;100.00;97361.94;5025719;28;20563;-72
2022/08/09 02:42:40;;;;;;;9.00;3.20;;;;;;;16.46;100.00;97361.91;5026403;28;20051;-72
2022/08/09 02:45:12;;;;;;;7.50;2.72;;;;;;;16.44;100.00;97364.06;5024938;28;20246;-73
2022/08/09 02:47:42;;;;;;;10.25;3.28;;;;;;;16.44;100.00;97367.59;5002883;28;20041;-71
2022/08/09 02:50:12;;;;;;;6.32;2.63;;;;;;;16.37;100.00;97366.19;5025635;28;20037;-73
2022/08/09 02:52:45;;;;;;;7.18;2.75;;;;;;;16.40;100.00;97363.78;5027077;28;20041;-73
2022/08/09 02:55:11;;;;;;;7.82;3.17;;;;;;;16.31;100.00;97359.94;5027722;28;20135;-73
2022/08/09 02:57:38;;;;;;;5.20;2.78;;;;;;;16.29;100.00;97362.09;5024912;28;20029;-71
2022/08/09 03:00:08;;;;;;;7.00;2.70;;;;;;;16.31;100.00;97370.75;5004585;28;20555;-72
2022/08/09 03:02:36;;;;;;;7.50;2.57;;;;;;;16.23;100.00;97359.66;5025133;28;20132;-73
2022/08/09 03:05:04;;;;;;;7.60;2.90;;;;;;;16.19;100.00;97362.06;5026623;28;20036;-73
2022/08/09 03:07:34;;;;;;;6.45;2.65;;;;;;;16.28;100.00;97370.47;5024358;28;20503;-72
2022/08/09 03:10:02;;;;;;;6.50;2.80;;;;;;;16.35;100.00;97371.88;5026621;28;20329;-72
2022/08/09 03:12:29;;;;;;;7.05;3.10;;;;;;;16.27;100.00;97369.66;5022647;28;20419;-74
2022/08/09 03:14:55;;;;;;;9.57;3.10;;;;;;;16.18;100.00;97384.72;5019071;28;20455;-71
2022/08/09 03:17:22;;;;;;;4.88;2.80;;;;;;;16.13;100.00;97374.72;5025984;28;20033;-73
2022/08/09 03:19:49;;;;;;;8.88;3.05;;;;;;;16.20;100.00;97369.09;5026317;28;20064;-73
2022/08/09 03:22:15;;;;;;;6.53;3.03;;;;;;;16.12;100.00;97375.00;5027022;28;20380;-73
2022/08/09 03:24:43;;;;;;;4.60;2.75;;;;;;;16.06;100.00;97378.72;5028224;28;20117;-72
2022/08/09 03:27:09;;;;;;;5.03;2.78;;;;;;;16.02;100.00;97367.63;5043748;28;20038;-73
2022/08/09 03:29:37;;;;;;;10.38;3.30;;;;;;;16.01;100.00;97376.00;5028900;28;20048;-71
2022/08/09 03:32:04;;;;;;;6.28;2.80;;;;;;;15.98;100.00;97373.81;5028856;28;20045;-72
2022/08/09 03:34:29;;;;;;;11.35;3.10;;;;;;;15.95;100.00;97374.31;5027419;28;20525;-72
2022/08/09 03:36:56;;;;;;;7.50;3.35;;;;;;;15.91;100.00;97375.94;5029486;28;20021;-72
2022/08/09 03:39:24;;;;;;;5.90;2.67;;;;;;;15.78;100.00;97367.19;5026938;28;20426;-72
2022/08/09 03:41:50;;;;;;;5.80;3.20;;;;;;;15.74;100.00;97365.31;5030520;28;20420;-72
2022/08/09 03:44:16;;;;;;;7.57;3.28;;;;;;;15.80;100.00;97375.88;5028474;28;20111;-72
2022/08/09 03:46:42;;;;;;;6.10;3.17;;;;;;;15.78;100.00;97369.91;5029966;28;20321;-72
2022/08/09 03:49:10;;;;;;;9.10;3.15;;;;;;;15.80;100.00;97375.88;5028524;28;20131;-72
2022/08/09 03:51:40;;;;;;;5.32;3.30;;;;;;;15.76;100.00;97373.94;5043982;28;20468;-72
2022/08/09 03:54:08;;;;;;;7.70;3.05;;;;;;;15.73;100.00;97374.47;5028239;28;20041;-71
2022/08/09 03:56:35;;;;;;;7.25;3.17;;;;;;;15.71;100.00;97368.50;5006087;28;20044;-72
2022/08/09 03:59:01;;;;;;;8.73;2.80;;;;;;;15.68;100.00;97379.81;5028146;28;20046;-73
2022/08/09 04:01:28;;;;;;;8.13;2.83;;;;;;;15.68;100.00;97375.22;5028780;28;20049;-71
2022/08/09 04:03:54;;;;;;;4.55;3.00;;;;;;;15.69;100.00;97379.56;5028314;28;20044;-72
2022/08/09 04:06:20;;;;;;;6.93;3.20;;;;;;;15.67;100.00;97387.09;5028354;28;20041;-71
2022/08/09 04:08:45;;;;;;;7.93;3.00;;;;;;;15.60;100.00;97378.38;5028442;28;20033;-71
2022/08/09 04:11:11;;;;;;;6.53;3.10;;;;;;;15.67;100.00;97379.00;5029095;28;20196;-71
2022/08/09 04:13:37;;;;;;;9.73;3.28;;;;;;;15.62;100.00;97387.06;5029152;28;20136;-72
2022/08/09 04:16:03;;;;;;;6.50;3.15;;;;;;;15.56;100.00;97385.34;5028916;28;20067;-71
2022/08/09 04:18:28;;;;;;;5.10;3.20;;;;;;;15.62;100.00;97387.06;5028360;28;20041;-71
2022/08/09 04:20:54;;;;;;;8.02;3.30;;;;;;;15.59;100.00;97391.06;5028785;28;20036;-71
2022/08/09 04:23:20;;;;;;;6.78;3.25;;;;;;;15.55;100.00;97395.31;5027944;28;20037;-71
2022/08/09 04:25:45;;;;;;;7.50;3.10;;;;;;;15.52;100.00;97400.44;5026976;28;20107;-71
2022/08/09 04:28:11;;;;;;;5.72;3.20;;;;;;;15.51;100.00;97391.53;5030249;28;20253;-71
2022/08/09 04:30:36;;;;;;;6.88;2.58;;;;;;;15.57;100.00;97397.78;5028467;28;20134;-71
2022/08/09 04:33:02;;;;;;;8.05;3.08;;;;;;;15.62;100.00;97395.16;5029078;28;20662;-71
2022/08/09 04:35:27;;;;;;;7.53;3.17;;;;;;;15.60;100.00;97399.97;5026309;28;20317;-71
2022/08/09 04:37:53;;;;;;;12.80;3.30;;;;;;;15.58;100.00;97405.63;5027115;28;20025;-72
2022/08/09 04:40:19;;;;;;;5.80;3.10;;;;;;;15.67;100.00;97408.69;5026491;28;20033;-71
2022/08/09 04:42:45;;;;;;;5.97;3.35;;;;;;;15.71;100.00;97401.69;5027815;28;20059;-72
2022/08/09 04:45:11;;;;;;;9.60;2.88;;;;;;;15.82;100.00;97416.09;5028263;28;20057;-71
2022/08/09 04:47:37;;;;;;;7.38;3.13;;;;;;;15.83;100.00;97415.81;5026682;28;20119;-71
2022/08/09 04:50:03;;;;;;;4.82;2.92;;;;;;;15.82;100.00;97410.69;5027671;28;20119;-71
2022/08/09 04:52:28;;;;;;;6.28;3.05;;;;;;;15.82;100.00;97419.59;5027453;28;20110;-71
2022/08/09 04:54:59;;;;;;;9.13;2.72;;;;;;;15.81;100.00;97417.16;5026842;28;20726;-72
2022/08/09 04:57:25;;;;;;;7.35;2.92;;;;;;;15.77;100.00;97418.72;5028123;28;20380;-71
2022/08/09 04:59:54;;;;;;;5.40;3.25;;;;;;;15.82;100.00;97427.69;5027048;28;20258;-71
2022/08/09 05:02:21;;;;;;;8.75;3.80;;;;;;;15.82;100.00;97432.28;5027636;28;20041;-71
2022/08/09 05:04:47;;;;;;;7.35;3.30;;;;;;;15.86;100.00;97430.66;5027624;28;20442;-71
2022/08/09 05:07:12;;;;;;;10.43;3.13;;;;;;;15.86;100.00;97439.59;5025903;28;20322;-71
2022/08/09 05:09:38;;;;;;;6.20;3.40;;;;;;;15.90;100.00;97434.50;5026041;28;20040;-72
2022/08/09 05:12:03;;;;;;;6.22;2.97;;;;;;;15.96;100.00;97435.34;5018806;28;20365;-72
2022/08/09 05:14:30;;;;;;;6.97;3.30;;;;;;;16.05;100.00;97436.50;5027371;28;20884;-71
2022/08/09 05:16:58;;;;;;;10.60;3.08;;;;;;;16.04;100.00;97424.06;5026745;28;20555;-71
2022/08/09 05:19:25;;;;;;;6.45;3.60;;;;;;;16.15;100.00;97437.38;5028570;28;20309;-72
2022/08/09 05:21:50;;;;;;;8.73;3.50;;;;;;;16.22;100.00;97431.75;5026515;28;20323;-72
2022/08/09 05:24:16;;;;;;;7.88;3.50;;;;;;;16.31;100.00;97437.47;5027007;28;20140;-72
2022/08/09 05:26:41;;;;;;;8.75;3.15;;;;;;;16.41;100.00;97449.13;5042808;28;20088;-72
2022/08/09 05:29:07;;;;;;;9.00;3.10;;;;;;;16.40;100.00;97434.00;5025955;28;20642;-72
2022/08/09 05:31:32;;;;;;;7.13;3.35;;;;;;;16.50;100.00;97443.22;5028855;28;20593;-72
2022/08/09 05:33:58;;;;;;;6.50;3.08;;;;;;;16.61;100.00;97447.63;5024666;28;20301;-72
2022/08/09 05:36:24;;;;;;;7.13;3.42;;;;;;;16.68;100.00;97443.59;5026187;28;20041;-72
2022/08/09 05:38:49;;;;;;;6.55;3.10;;;;;;;16.76;100.00;97445.03;5025993;28;20730;-72
2022/08/09 05:41:15;;;;;;;11.00;3.20;;;;;;;16.80;100.00;97448.81;5026420;28;20291;-72
2022/08/09 05:43:44;;;;;;;7.35;3.05;;;;;;;16.89;100.00;97454.53;5027115;28;20072;-72
2022/08/09 05:46:10;;;;;;;6.78;3.08;;;;;;;16.88;100.00;97452.88;5026214;28;20102;-72
2022/08/09 05:48:35;;;;;;;5.47;3.00;;;;;;;16.95;100.00;97451.56;5027705;28;20045;-72
2022/08/09 05:51:01;;;;;;;6.38;3.30;;;;;;;17.10;100.00;97458.09;5026630;28;20411;-72
2022/08/09 05:53:26;;;;;;;6.72;3.00;;;;;;;17.09;100.00;97446.47;5026937;28;20458;-72
2022/08/09 05:55:52;;;;;;;11.73;2.67;;;;;;;17.19;100.00;97453.81;5022098;28;20122;-72
2022/08/09 05:58:17;;;;;;;5.22;2.88;;;;;;;17.25;100.00;97452.75;5025143;28;20039;-72
2022/08/09 06:00:43;;;;;;;6.80;3.05;;;;;;;17.31;100.00;97450.88;5026466;28;20087;-72
2022/08/09 06:03:09;;;;;;;9.00;3.40;;;;;;;17.43;100.00;97456.81;5025441;28;20533;-72
2022/08/09 06:05:35;;;;;;;9.30;2.90;;;;;;;17.47;100.00;97455.22;5027019;28;20072;-72
2022/08/09 06:08:00;;;;;;;12.65;3.38;;;;;;;17.52;100.00;97456.06;5023300;28;20094;-72
2022/08/09 06:10:36;;;;;;;7.40;3.00;;;;;;;17.51;100.00;97459.84;5023649;28;20423;-72
2022/08/09 06:13:12;;;;;;;5.13;2.97;;;;;;;17.67;100.00;97459.88;5026943;28;20440;-72
2022/08/09 06:15:38;;;;;;;5.53;3.60;;;;;;;17.72;99.16;97457.16;5027849;28;20037;-72
2022/08/09 06:18:04;;;;;;;7.93;2.97;;;;;;;17.81;99.40;97458.25;5026902;28;20037;-72
2022/08/09 06:20:30;;;;;;;7.72;2.97;;;;;;;17.86;98.80;97454.75;5028553;28;20423;-72
2022/08/09 06:22:56;;;;;;;5.53;3.00;;;;;;;17.92;98.96;97457.19;5027856;28;20132;-72
2022/08/09 06:25:22;;;;;;;9.38;5.05;;;;;;;17.98;100.00;97466.13;5027665;28;20428;-72
2022/08/09 06:27:47;;;;;;;6.70;3.00;;;;;;;18.05;99.17;97462.06;5028391;28;20062;-72
2022/08/09 06:30:13;;;;;;;7.57;2.90;;;;;;;18.14;97.77;97467.75;5028310;28;20029;-71
2022/08/09 06:32:38;;;;;;;10.52;3.47;;;;;;;18.24;97.20;97467.72;5025481;28;20041;-72
2022/08/09 06:35:04;;;;;;;6.70;3.03;;;;;;;18.34;97.03;97480.44;5028137;28;20315;-72
2022/08/09 06:37:30;;;;;;;9.68;3.50;;;;;;;18.34;97.71;97473.13;5027892;28;20127;-72
2022/08/09 06:39:55;;;;;;;4.85;3.15;;;;;;;18.46;96.52;97475.53;5027435;28;20090;-72
2022/08/09 06:42:21;;;;;;;7.88;2.90;;;;;;;18.56;94.94;97472.81;5027584;28;20041;-72
2022/08/09 06:44:47;;;;;;;6.28;3.20;;;;;;;18.61;93.91;97469.28;5026573;28;20040;-72
2022/08/09 06:47:13;;;;;;;8.60;2.88;;;;;;;18.71;94.18;97473.88;5023955;28;20401;-71
2022/08/09 06:49:39;;;;;;;5.63;2.67;;;;;;;18.76;95.81;97469.25;5026435;28;20045;-72
2022/08/09 06:52:04;;;;;;;8.85;3.00;;;;;;;18.85;93.20;97475.72;5026451;28;20041;-72
2022/08/09 06:54:30;;;;;;;12.55;3.22;;;;;;;18.91;92.44;97480.06;5027016;28;20095;-72
2022/08/09 06:56:55;;;;;;;7.47;3.20;;;;;;;19.00;92.27;97483.00;5026786;28;20659;-72
2022/08/09 06:59:21;;;;;;;6.95;3.13;;;;;;;19.10;92.48;97474.00;5028022;28;20505;-72
2022/08/09 07:01:46;;;;;;;12.60;3.03;;;;;;;19.18;92.17;97479.66;5030441;28;20044;-72
2022/08/09 07:04:12;;;;;;;9.70;3.20;;;;;;;19.30;90.65;97482.03;5029525;28;20532;-72
2022/08/09 07:06:38;;;;;;;7.07;2.80;;;;;;;19.38;90.34;97486.88;5029756;28;20065;-72
2022/08/09 07:09:03;;;;;;;6.32;2.85;;;;;;;19.51;89.47;97487.34;5030794;28;20037;-72
2022/08/09 07:11:29;;;;;;;9.95;2.90;;;;;;;19.60;88.27;97483.78;5031249;28;20538;-72
2022/08/09 07:13:54;;;;;;;7.15;2.88;;;;;;;19.65;87.55;97494.59;5029823;28;20041;-72
2022/08/09 07:16:19;;;;;;;5.85;2.88;;;;;;;19.74;86.66;97497.53;5028031;28;20038;-72
2022/08/09 07:18:45;;;;;;;5.22;2.85;;;;;;;19.82;86.14;97496.13;5030214;28;20082;-72
2022/08/09 07:21:10;;;;;;;8.55;2.80;;;;;;;19.90;85.55;97498.25;5030440;28;20029;-72
2022/08/09 07:23:36;;;;;;;5.82;2.92;;;;;;;19.96;86.06;97494.41;5030687;28;20170;-72
2022/08/09 07:26:02;;;;;;;7.53;3.03;;;;;;;20.06;85.58;97491.59;5031754;28;20049;-72
2022/08/09 07:28:29;;;;;;;5.82;3.08;;;;;;;20.15;85.69;97495.31;5031877;28;20076;-72
2022/08/09 07:30:55;;;;;;;10.65;3.10;;;;;;;20.24;85.66;97496.34;5031632;28;20056;-72
2022/08/09 07:33:21;;;;;;;6.45;3.08;;;;;;;20.33;85.72;97493.00;5032155;28;20041;-72
2022/08/09 07:35:47;;;;;;;5.35;2.80;;;;;;;20.41;84.20;97486.94;5030506;28;20088;-72
2022/08/09 07:38:12;;;;;;;5.68;3.17;;;;;;;20.46;82.22;97485.00;5032241;28;20041;-72
2022/08/09 07:40:37;;;;;;;8.05;2.78;;;;;;;20.52;81.88;97489.28;5031601;28;20391;-72
2022/08/09 07:43:03;;;;;;;5.38;2.75;;;;;;;20.60;83.05;97485.13;5031841;28;20040;-72
2022/08/09 07:45:30;;;;;;;11.68;3.22;;;;;;;20.70;82.58;97486.94;5030734;28;20064;-72
2022/08/09 07:47:57;;;;;;;5.15;2.95;;;;;;;20.75;81.54;97493.13;5031839;28;20045;-72
2022/08/09 07:50:25;;;;;;;7.25;2.70;;;;;;;20.80;80.09;97490.38;5029524;28;20064;-72
2022/08/09 07:52:51;;;;;;;6.63;2.80;;;;;;;20.96;79.03;97490.19;5031554;28;20051;-72
2022/08/09 07:55:16;;;;;;;6.93;2.88;;;;;;;21.02;78.99;97487.13;5029456;28;20347;-72
2022/08/09 07:57:44;;;;;;;8.75;3.15;;;;;;;21.19;79.43;97488.56;5030970;28;20315;-72
2022/08/09 08:00:10;;;;;;;6.70;3.08;;;;;;;21.24;79.00;97478.38;5027939;28;20037;-72
2022/08/09 08:02:38;;;;;;;7.28;3.17;;;;;;;21.31;77.63;97478.88;5029907;28;20428;-72
2022/08/09 08:05:04;;;;;;;10.68;2.85;;;;;;;21.38;77.10;97479.31;5031973;28;20043;-72
2022/08/09 08:07:30;;;;;;;5.47;2.75;;;;;;;21.49;74.79;97481.91;5032064;28;20040;-72
2022/08/09 08:09:55;;;;;;;8.30;2.58;;;;;;;21.57;74.88;97483.97;5032105;28;20063;-72
2022/08/09 08:12:21;;;;;;;6.43;2.80;;;;;;;21.67;75.26;97483.81;5034781;28;20072;-72
2022/08/09 08:14:46;;;;;;;6.30;2.58;;;;;;;21.65;74.19;97484.13;5034646;28;20040;-72
2022/08/09 08:17:12;;;;;;;12.60;2.80;;;;;;;21.78;74.52;97481.75;5034798;28;20049;-72
2022/08/09 08:19:38;;;;;;;7.97;2.75;;;;;;;21.92;73.55;97477.16;5034093;28;20464;-72
2022/08/09 08:22:03;;;;;;;10.45;2.47;;;;;;;22.02;68.60;97474.28;5034238;28;20285;-72
2022/08/09 08:24:29;;;;;;;6.70;2.75;;;;;;;22.07;65.23;97479.66;5036061;28;20041;-72
2022/08/09 08:26:54;;;;;;;5.90;2.42;;;;;;;22.10;66.85;97479.09;5050507;28;20040;-72
2022/08/09 08:29:20;;;;;;;7.45;2.70;;;;;;;22.12;63.05;97471.44;5032580;28;20041;-72
2022/08/09 08:31:45;;;;;;;7.40;2.80;;;;;;;22.24;66.69;97470.94;5034572;28;20056;-72
2022/08/09 08:34:11;;;;;;;4.07;2.40;;;;;;;22.40;65.39;97476.94;5030883;28;20067;-72
2022/08/09 08:36:37;;;;;;;6.78;3.20;;;;;;;22.43;64.07;97484.53;5032625;28;20139;-72
2022/08/09 08:39:03;;;;;;;8.40;2.72;;;;;;;22.55;62.47;97478.56;5029969;28;20029;-72
2022/08/09 08:41:29;;;;;;;6.43;2.67;;;;;;;22.64;61.75;97479.50;5033836;28;20056;-72
2022/08/09 08:43:55;;;;;;;8.57;2.95;;;;;;;22.68;62.64;97478.59;5032232;28;20032;-72
2022/08/09 08:46:23;;;;;;;6.38;2.88;;;;;;;22.74;62.01;97482.03;5032427;28;20037;-72
2022/08/09 08:48:49;;;;;;;6.38;2.53;;;;;;;22.80;60.35;97483.53;5030583;28;20668;-72
2022/08/09 08:51:15;;;;;;;5.30;2.60;;;;;;;22.93;63.25;97480.03;5033581;28;20175;-72
2022/08/09 08:53:41;;;;;;;5.50;2.63;;;;;;;23.07;60.71;97486.31;5033004;28;20091;-72
2022/08/09 08:56:06;;;;;;;6.43;2.70;;;;;;;23.18;61.50;97480.63;5030835;28;20068;-72
2022/08/09 08:58:34;;;;;;;13.40;3.35;;;;;;;23.24;60.87;97482.97;5032398;28;20098;-72
2022/08/09 09:01:02;;;;;;;7.95;2.90;;;;;;;23.35;61.28;97489.84;5031551;28;20459;-72
2022/08/09 09:03:33;;;;;;;6.80;2.67;;;;;;;23.41;56.49;97485.06;5030024;28;20315;-72
2022/08/09 09:06:06;;;;;;;8.70;2.75;;;;;;;23.53;58.07;97488.06;5033458;28;20044;-72
2022/08/09 09:08:39;;;;;;;5.18;3.05;;;;;;;23.51;54.85;97487.56;5032613;28;20037;-72
2022/08/09 09:11:05;;;;;;;5.95;2.60;;;;;;;23.56;56.36;97492.91;5031441;28;20048;-72
2022/08/09 09:13:36;;;;;;;6.10;2.72;;;;;;;23.72;54.46;97495.31;5033512;28;20037;-72
2022/08/09 09:16:01;;;;;;;4.50;2.58;;;;;;;23.77;55.14;97492.50;5031783;28;20045;-72
2022/08/09 09:18:27;;;;;;;7.45;3.10;;;;;;;23.87;55.25;97490.31;5030849;28;20052;-72
2022/08/09 09:20:53;;;;;;;5.70;2.45;;;;;;;23.97;53.58;97485.72;5033413;28;20033;-72
2022/08/09 09:23:39;;;;;;;6.93;2.65;;;;;;;24.09;49.69;97494.19;5029350;28;20334;-72
2022/08/09 09:26:04;;;;;;;11.02;2.90;;;;;;;24.06;48.73;97492.88;5030314;28;20565;-72
2022/08/09 09:28:35;;;;;;;8.68;2.58;;;;;;;24.19;51.22;97491.19;5031295;28;20037;-73
2022/08/09 09:31:00;;;;;;;7.45;2.70;;;;;;;24.29;50.15;97484.69;5032985;28;20465;-72
2022/08/09 09:33:33;;;;;;;7.47;2.92;;;;;;;24.44;52.34;97498.00;5033368;28;20071;-72
2022/08/09 09:36:05;;;;;;;5.65;2.58;;;;;;;24.56;49.79;97489.19;5030787;28;20033;-72
2022/08/09 09:38:47;;;;;;;8.25;2.70;;;;;;;24.79;52.03;97492.69;4998267;28;20045;-72
2022/08/09 09:41:22;;;;;;;9.35;2.70;;;;;;;24.88;47.75;97493.53;5029833;28;20037;-72
2022/08/09 09:43:48;;;;;;;9.70;2.92;;;;;;;24.75;47.56;97492.53;5026256;28;20451;-72
2022/08/09 09:46:13;;;;;;;10.45;2.95;;;;;;;24.57;48.00;97490.81;5031563;28;20373;-72
2022/08/09 09:48:57;;;;;;;9.32;2.78;;;;;;;24.58;46.88;97490.47;5029749;28;20076;-72
2022/08/09 09:51:25;;;;;;;10.10;3.10;;;;;;;24.97;47.46;97494.34;5027364;28;20499;-72
2022/08/09 09:54:11;;;;;;;8.15;2.78;;;;;;;25.12;47.97;97490.41;5030706;28;20028;-72
2022/08/09 09:56:42;;;;;;;5.90;2.70;;;;;;;25.35;43.97;97500.13;5032574;28;20500;-72
2022/08/09 09:59:10;;;;;;;12.10;3.10;;;;;;;25.36;44.52;97492.72;5028016;28;20041;-72
2022/08/09 10:01:36;;;;;;;11.32;3.00;;;;;;;25.65;45.02;97501.16;5031389;28;20969;-72
2022/08/09 10:04:03;;;;;;;9.40;2.80;;;;;;;25.74;42.36;97503.94;5032331;28;20139;-72
2022/08/09 10:06:40;;;;;;;5.65;2.83;;;;;;;25.78;41.41;97504.91;5033095;28;20840;-72
2022/08/09 10:09:07;;;;;;;8.30;2.60;;;;;;;26.01;41.69;97508.31;5030901;28;20443;-72
2022/08/09 10:11:34;;;;;;;7.40;2.65;;;;;;;25.76;38.04;97502.50;5031605;28;20032;-72
2022/08/09 10:14:00;;;;;;;9.30;2.90;;;;;;;25.52;39.69;97502.09;5031483;28;20037;-72
2022/08/09 10:16:29;;;;;;;6.38;2.25;;;;;;;25.90;39.29;97502.31;5028868;28;20569;-72
2022/08/09 10:18:57;;;;;;;7.65;2.85;;;;;;;26.00;39.46;97495.72;5033459;28;20218;-72
2022/08/09 10:21:23;;;;;;;4.40;2.20;;;;;;;26.22;37.49;97502.94;5031601;28;20106;-72
2022/08/09 10:23:49;;;;;;;10.75;2.13;;;;;;;26.34;35.95;97490.19;5030621;28;20043;-73
2022/08/09 10:26:15;;;;;;;9.52;2.75;;;;;;;26.00;36.92;97493.78;5031578;28;20064;-72
2022/08/09 10:28:43;;;;;;;14.73;2.70;;;;;;;26.00;37.29;97482.03;5031185;28;20055;-73
2022/08/09 10:31:10;;;;;;;7.85;2.47;;;;;;;25.96;37.54;97487.34;4681644;28;10000251;-73
2022/08/09 10:33:36;;;;;;;8.43;2.95;;;;;;;25.98;36.76;97484.25;4683695;28;10000053;-72
2022/08/09 10:36:06;;;;;;;6.57;2.50;;;;;;;26.25;37.97;97485.88;5032555;28;20032;-72
2022/08/09 10:38:32;;;;;;;4.65;2.38;;;;;;;26.53;36.80;97486.28;5008573;28;20155;-73
2022/08/09 10:40:58;;;;;;;4.93;2.08;;;;;;;26.96;34.68;97482.59;5032288;28;20582;-72
2022/08/09 10:43:25;;;;;;;5.43;2.20;;;;;;;27.43;33.16;97484.16;5034432;28;20534;-72
2022/08/09 10:45:51;;;;;;;8.85;2.10;;;;;;;27.60;33.19;97479.66;5033316;28;20698;-72
2022/08/09 10:49:03;;;;;;;9.27;2.10;;;;;;;27.84;33.50;97479.81;5030919;28;20051;-72
2022/08/09 10:51:53;;;;;;;7.45;2.03;;;;;;;28.29;32.22;97481.84;5028741;28;20057;-72
2022/08/09 10:54:24;;;;;;;6.18;2.45;;;;;;;28.35;32.07;97476.97;5030537;28;20038;-72
2022/08/09 10:57:09;;;;;;;17.45;2.72;;;;;;;28.32;31.47;97481.19;5032272;28;20718;-73
2022/08/09 10:59:36;;;;;;;5.88;2.15;;;;;;;28.60;31.65;97478.66;5031570;28;20048;-72
2022/08/09 11:02:04;;;;;;;6.97;2.25;;;;;;;28.96;31.23;97480.69;5031074;28;20048;-72
2022/08/09 11:04:31;;;;;;;4.68;2.35;;;;;;;29.56;29.68;97484.56;5032846;28;20587;-72
2022/08/09 11:06:59;;;;;;;4.30;2.08;;;;;;;30.09;27.55;97481.81;5029788;28;20045;-73
2022/08/09 11:09:36;;;;;;;4.53;2.03;;;;;;;30.46;26.86;97474.16;5031113;28;20067;-72
2022/08/09 11:12:17;;;;;;;4.65;2.10;;;;;;;32.06;24.76;97471.66;5032474;28;20148;-72
2022/08/09 11:14:47;;;;;;;7.00;2.20;;;;;;;31.77;26.93;97473.84;5030444;28;20028;-73
2022/08/09 11:17:12;;;;;;;5.90;2.28;;;;;;;33.77;24.07;97469.06;5031930;28;20842;-72
2022/08/09 11:19:54;;;;;;;4.38;2.15;;;;;;;35.43;22.70;97472.03;5027410;28;20063;-73
2022/08/09 11:22:21;;;;;;;5.65;2.40;;;;;;;37.24;19.82;97467.44;5029837;28;20036;-73
2022/08/09 11:25:23;;;;;;;8.75;2.13;;;;;;;39.07;17.62;97468.28;5030613;28;20057;-72
2022/08/09 11:27:48;;;;;;;6.35;2.40;;;;;;;39.51;18.24;97470.31;5015250;28;20079;-73
2022/08/09 11:30:31;;;;;;;5.43;1.88;;;;;;;40.05;16.77;97462.16;5031596;28;20116;-73
2022/08/09 11:33:15;;;;;;;3.65;2.28;;;;;;;40.98;16.11;97461.69;5029659;28;20051;-73
2022/08/09 11:35:42;;;;;;;5.13;2.10;;;;;;;41.84;15.63;97460.19;5031595;28;20087;-73